aviador You're here:

PAFS Decoded Metar

NIKOLAI in AK, USA
Report Time2017-12-16 18:01:00
UTC Time2017-12-16 18:53:59
Flight Rules mvfr MVFR
Wind060° at 04 kt
W.Decomp.*RWY 04: 4.0 kt HW 0.1 kt RCW
W.Rank060° ranks 3
Current wind is below 060° avg. (6.9)
Visibility9999 m
Phenomena:Light Snow
Clouds:Few 013 Hf
Overcast 022 Hf
Expected CloudBase > 800 ft AGL from Temp-Dew spread
Ceiling2,200 ft
Temp-4°C (ISA -18)
Dew Point-6°C (86% RH)
AAT-8.2°C
QNH986 hPa
Density Alt-837 ft
Elevation413 ft
Report Wrong Elevation
Raw Report
PAFS 161801Z AUTO 06004KT 8SM -SN FEW013 OVC022 M04/M06 A2913=

Extra information for PAFS:More info

Metar Taf Metar & Taf Last 4 Metars F.Rules Stats Wind Profile Meteogram Temp Stats Airport Information Weather charts Add Link Nearby VenuesMetar ALERT Operation Metar Decoded Social comments

AIRNAV info for PAFS